sensor_id;sensor_type;location;lat;lon;timestamp;temperature;humidity
35700;DHT22;21818;51.078;12.108;2023-05-29T00:01:52;15.30;74.40
35700;DHT22;21818;51.078;12.108;2023-05-29T00:04:18;15.00;74.60
35700;DHT22;21818;51.078;12.108;2023-05-29T00:06:43;14.50;75.40
35700;DHT22;21818;51.078;12.108;2023-05-29T00:09:09;14.40;76.30
35700;DHT22;21818;51.078;12.108;2023-05-29T00:11:35;14.50;76.20
35700;DHT22;21818;51.078;12.108;2023-05-29T00:14:00;14.40;76.40
35700;DHT22;21818;51.078;12.108;2023-05-29T00:16:26;14.60;76.50
35700;DHT22;21818;51.078;12.108;2023-05-29T00:18:52;14.60;76.00
35700;DHT22;21818;51.078;12.108;2023-05-29T00:21:19;14.70;76.20
35700;DHT22;21818;51.078;12.108;2023-05-29T00:23:44;14.80;76.00
35700;DHT22;21818;51.078;12.108;2023-05-29T00:26:10;14.90;75.80
35700;DHT22;21818;51.078;12.108;2023-05-29T00:28:35;14.70;76.10
35700;DHT22;21818;51.078;12.108;2023-05-29T00:31:04;14.50;76.40
35700;DHT22;21818;51.078;12.108;2023-05-29T00:33:30;14.10;77.60
35700;DHT22;21818;51.078;12.108;2023-05-29T00:35:55;13.50;80.10
35700;DHT22;21818;51.078;12.108;2023-05-29T00:38:21;13.40;81.00
35700;DHT22;21818;51.078;12.108;2023-05-29T00:40:47;13.20;81.50
35700;DHT22;21818;51.078;12.108;2023-05-29T00:43:12;13.50;81.10
35700;DHT22;21818;51.078;12.108;2023-05-29T00:45:38;13.80;79.90
35700;DHT22;21818;51.078;12.108;2023-05-29T00:48:05;13.90;79.40
35700;DHT22;21818;51.078;12.108;2023-05-29T00:50:31;13.60;80.50
35700;DHT22;21818;51.078;12.108;2023-05-29T00:52:57;13.20;81.70
35700;DHT22;21818;51.078;12.108;2023-05-29T00:55:23;13.00;83.60
35700;DHT22;21818;51.078;12.108;2023-05-29T00:57:49;12.90;83.20
35700;DHT22;21818;51.078;12.108;2023-05-29T01:00:15;13.20;82.60
35700;DHT22;21818;51.078;12.108;2023-05-29T01:02:43;13.60;81.40
35700;DHT22;21818;51.078;12.108;2023-05-29T01:05:11;13.90;80.20
35700;DHT22;21818;51.078;12.108;2023-05-29T01:07:37;13.70;80.60
35700;DHT22;21818;51.078;12.108;2023-05-29T01:10:04;13.60;80.90
35700;DHT22;21818;51.078;12.108;2023-05-29T01:15:14;14.10;79.90
35700;DHT22;21818;51.078;12.108;2023-05-29T01:20:40;14.40;79.30
35700;DHT22;21818;51.078;12.108;2023-05-29T01:28:52;14.20;78.60
35700;DHT22;21818;51.078;12.108;2023-05-29T01:31:23;13.90;79.10
35700;DHT22;21818;51.078;12.108;2023-05-29T01:33:57;13.80;79.40
35700;DHT22;21818;51.078;12.108;2023-05-29T01:36:24;13.60;80.20
35700;DHT22;21818;51.078;12.108;2023-05-29T01:38:51;13.50;80.50
35700;DHT22;21818;51.078;12.108;2023-05-29T01:41:18;13.80;80.30
35700;DHT22;21818;51.078;12.108;2023-05-29T01:43:45;14.00;79.60
35700;DHT22;21818;51.078;12.108;2023-05-29T01:46:13;14.20;79.20
35700;DHT22;21818;51.078;12.108;2023-05-29T01:48:40;14.20;79.00
35700;DHT22;21818;51.078;12.108;2023-05-29T01:51:06;14.10;79.20
35700;DHT22;21818;51.078;12.108;2023-05-29T01:53:32;14.00;79.20
35700;DHT22;21818;51.078;12.108;2023-05-29T01:55:58;14.00;79.30
35700;DHT22;21818;51.078;12.108;2023-05-29T01:58:25;13.90;79.30
35700;DHT22;21818;51.078;12.108;2023-05-29T02:00:51;13.80;79.90
35700;DHT22;21818;51.078;12.108;2023-05-29T02:03:17;14.00;79.50
35700;DHT22;21818;51.078;12.108;2023-05-29T02:05:43;14.10;78.80
35700;DHT22;21818;51.078;12.108;2023-05-29T02:08:08;14.00;79.20
35700;DHT22;21818;51.078;12.108;2023-05-29T02:10:34;14.00;79.20
35700;DHT22;21818;51.078;12.108;2023-05-29T02:12:59;14.10;79.20
35700;DHT22;21818;51.078;12.108;2023-05-29T02:15:25;14.10;79.00
35700;DHT22;21818;51.078;12.108;2023-05-29T02:17:50;13.80;80.10
35700;DHT22;21818;51.078;12.108;2023-05-29T02:20:17;13.70;80.00
35700;DHT22;21818;51.078;12.108;2023-05-29T02:22:43;13.80;79.70
35700;DHT22;21818;51.078;12.108;2023-05-29T02:25:08;13.80;79.40
35700;DHT22;21818;51.078;12.108;2023-05-29T02:27:34;13.70;79.40
35700;DHT22;21818;51.078;12.108;2023-05-29T02:29:59;13.70;79.60
35700;DHT22;21818;51.078;12.108;2023-05-29T02:32:25;13.70;79.70
35700;DHT22;21818;51.078;12.108;2023-05-29T02:34:53;13.60;79.70
35700;DHT22;21818;51.078;12.108;2023-05-29T02:37:19;13.60;80.00
35700;DHT22;21818;51.078;12.108;2023-05-29T02:39:44;13.60;79.80
35700;DHT22;21818;51.078;12.108;2023-05-29T02:42:10;13.30;80.30
35700;DHT22;21818;51.078;12.108;2023-05-29T02:44:35;13.30;80.80
35700;DHT22;21818;51.078;12.108;2023-05-29T02:47:01;13.30;80.80
35700;DHT22;21818;51.078;12.108;2023-05-29T02:49:26;13.40;80.70
35700;DHT22;21818;51.078;12.108;2023-05-29T02:51:52;13.50;80.30
35700;DHT22;21818;51.078;12.108;2023-05-29T02:54:23;13.20;80.80
35700;DHT22;21818;51.078;12.108;2023-05-29T02:56:48;13.40;80.90
35700;DHT22;21818;51.078;12.108;2023-05-29T02:59:14;13.60;80.60
35700;DHT22;21818;51.078;12.108;2023-05-29T03:01:40;13.50;80.50
35700;DHT22;21818;51.078;12.108;2023-05-29T03:04:05;13.10;81.30
35700;DHT22;21818;51.078;12.108;2023-05-29T03:06:31;12.80;82.00
35700;DHT22;21818;51.078;12.108;2023-05-29T03:08:57;12.80;82.40
35700;DHT22;21818;51.078;12.108;2023-05-29T03:11:25;12.80;82.60
35700;DHT22;21818;51.078;12.108;2023-05-29T03:13:50;13.00;81.90
35700;DHT22;21818;51.078;12.108;2023-05-29T03:16:16;12.90;82.30
35700;DHT22;21818;51.078;12.108;2023-05-29T03:18:41;12.60;84.00
35700;DHT22;21818;51.078;12.108;2023-05-29T03:21:07;12.40;85.00
35700;DHT22;21818;51.078;12.108;2023-05-29T03:23:33;12.10;87.00
35700;DHT22;21818;51.078;12.108;2023-05-29T03:25:58;11.80;88.90
35700;DHT22;21818;51.078;12.108;2023-05-29T03:28:24;11.70;89.40
35700;DHT22;21818;51.078;12.108;2023-05-29T03:30:50;11.60;90.20
35700;DHT22;21818;51.078;12.108;2023-05-29T03:33:17;11.70;90.40
35700;DHT22;21818;51.078;12.108;2023-05-29T03:35:42;11.70;90.50
35700;DHT22;21818;51.078;12.108;2023-05-29T03:38:08;11.70;90.90
35700;DHT22;21818;51.078;12.108;2023-05-29T03:40:33;11.70;90.90
35700;DHT22;21818;51.078;12.108;2023-05-29T03:42:59;11.70;90.80
35700;DHT22;21818;51.078;12.108;2023-05-29T03:45:24;11.70;90.90
35700;DHT22;21818;51.078;12.108;2023-05-29T03:47:51;11.70;91.00
35700;DHT22;21818;51.078;12.108;2023-05-29T03:50:16;11.70;90.90
35700;DHT22;21818;51.078;12.108;2023-05-29T03:52:42;11.80;90.80
35700;DHT22;21818;51.078;12.108;2023-05-29T03:55:09;11.80;91.00
35700;DHT22;21818;51.078;12.108;2023-05-29T03:57:40;11.80;91.10
35700;DHT22;21818;51.078;12.108;2023-05-29T04:00:10;11.80;91.20
35700;DHT22;21818;51.078;12.108;2023-05-29T04:02:40;11.80;91.20
35700;DHT22;21818;51.078;12.108;2023-05-29T04:05:06;11.90;91.20
35700;DHT22;21818;51.078;12.108;2023-05-29T04:07:33;11.90;91.10
35700;DHT22;21818;51.078;12.108;2023-05-29T04:09:58;11.90;91.00
35700;DHT22;21818;51.078;12.108;2023-05-29T04:12:24;11.90;91.30
35700;DHT22;21818;51.078;12.108;2023-05-29T04:14:50;12.00;91.20
35700;DHT22;21818;51.078;12.108;2023-05-29T04:17:15;12.00;91.30
35700;DHT22;21818;51.078;12.108;2023-05-29T04:19:41;12.10;91.00
35700;DHT22;21818;51.078;12.108;2023-05-29T04:22:06;12.20;91.30
35700;DHT22;21818;51.078;12.108;2023-05-29T04:24:33;12.20;91.10
35700;DHT22;21818;51.078;12.108;2023-05-29T04:26:58;12.10;91.10
35700;DHT22;21818;51.078;12.108;2023-05-29T04:29:26;12.00;91.40
35700;DHT22;21818;51.078;12.108;2023-05-29T04:31:52;12.00;91.40
35700;DHT22;21818;51.078;12.108;2023-05-29T04:34:17;12.00;91.60
35700;DHT22;21818;51.078;12.108;2023-05-29T04:36:43;12.10;91.90
35700;DHT22;21818;51.078;12.108;2023-05-29T04:39:09;12.20;91.40
35700;DHT22;21818;51.078;12.108;2023-05-29T04:41:34;12.30;91.20
35700;DHT22;21818;51.078;12.108;2023-05-29T04:44:00;12.40;91.40
35700;DHT22;21818;51.078;12.108;2023-05-29T04:46:26;12.50;91.30
35700;DHT22;21818;51.078;12.108;2023-05-29T04:48:52;12.70;91.00
35700;DHT22;21818;51.078;12.108;2023-05-29T04:51:19;12.70;91.10
35700;DHT22;21818;51.078;12.108;2023-05-29T04:53:45;12.80;90.90
35700;DHT22;21818;51.078;12.108;2023-05-29T04:56:12;12.90;90.90
35700;DHT22;21818;51.078;12.108;2023-05-29T04:58:38;12.90;90.90
35700;DHT22;21818;51.078;12.108;2023-05-29T05:01:04;13.00;90.90
35700;DHT22;21818;51.078;12.108;2023-05-29T05:03:30;13.10;90.70
35700;DHT22;21818;51.078;12.108;2023-05-29T05:06:02;13.20;90.60
35700;DHT22;21818;51.078;12.108;2023-05-29T05:08:29;13.20;90.70
35700;DHT22;21818;51.078;12.108;2023-05-29T05:10:59;13.30;90.70
35700;DHT22;21818;51.078;12.108;2023-05-29T05:13:25;13.30;90.90
35700;DHT22;21818;51.078;12.108;2023-05-29T05:15:50;13.40;90.80
35700;DHT22;21818;51.078;12.108;2023-05-29T05:18:16;13.50;90.50
35700;DHT22;21818;51.078;12.108;2023-05-29T05:20:42;13.60;90.50
35700;DHT22;21818;51.078;12.108;2023-05-29T05:23:07;13.70;90.50
35700;DHT22;21818;51.078;12.108;2023-05-29T05:25:33;13.70;90.50
35700;DHT22;21818;51.078;12.108;2023-05-29T05:28:00;13.80;90.50
35700;DHT22;21818;51.078;12.108;2023-05-29T05:30:26;13.90;90.40
35700;DHT22;21818;51.078;12.108;2023-05-29T05:32:51;13.80;90.70
35700;DHT22;21818;51.078;12.108;2023-05-29T05:35:17;13.80;90.70
35700;DHT22;21818;51.078;12.108;2023-05-29T05:37:43;13.90;90.60
35700;DHT22;21818;51.078;12.108;2023-05-29T05:40:08;13.90;90.80
35700;DHT22;21818;51.078;12.108;2023-05-29T05:42:34;14.00;90.60
35700;DHT22;21818;51.078;12.108;2023-05-29T05:45:01;14.60;89.80
35700;DHT22;21818;51.078;12.108;2023-05-29T05:47:27;15.50;87.30
35700;DHT22;21818;51.078;12.108;2023-05-29T05:49:55;16.10;85.40
35700;DHT22;21818;51.078;12.108;2023-05-29T05:52:21;16.60;83.90
35700;DHT22;21818;51.078;12.108;2023-05-29T05:54:47;16.90;82.90
35700;DHT22;21818;51.078;12.108;2023-05-29T05:57:13;17.10;82.10
35700;DHT22;21818;51.078;12.108;2023-05-29T05:59:38;17.30;81.60
35700;DHT22;21818;51.078;12.108;2023-05-29T06:02:04;17.40;81.00
35700;DHT22;21818;51.078;12.108;2023-05-29T06:04:30;17.50;80.70
35700;DHT22;21818;51.078;12.108;2023-05-29T06:06:55;17.60;80.30
35700;DHT22;21818;51.078;12.108;2023-05-29T06:09:21;17.70;80.00
35700;DHT22;21818;51.078;12.108;2023-05-29T06:11:47;17.80;79.70
35700;DHT22;21818;51.078;12.108;2023-05-29T06:14:15;17.80;79.30
35700;DHT22;21818;51.078;12.108;2023-05-29T06:16:41;17.90;79.10
35700;DHT22;21818;51.078;12.108;2023-05-29T06:19:07;18.00;78.90
35700;DHT22;21818;51.078;12.108;2023-05-29T06:21:33;18.00;78.70
35700;DHT22;21818;51.078;12.108;2023-05-29T06:23:58;18.00;78.40
35700;DHT22;21818;51.078;12.108;2023-05-29T06:26:24;18.10;78.30
35700;DHT22;21818;51.078;12.108;2023-05-29T06:28:53;18.10;78.10
35700;DHT22;21818;51.078;12.108;2023-05-29T06:31:18;18.20;77.90
35700;DHT22;21818;51.078;12.108;2023-05-29T06:33:45;18.20;77.70
35700;DHT22;21818;51.078;12.108;2023-05-29T06:36:11;18.20;77.60
35700;DHT22;21818;51.078;12.108;2023-05-29T06:38:37;18.30;77.40
35700;DHT22;21818;51.078;12.108;2023-05-29T06:41:02;18.30;77.30
35700;DHT22;21818;51.078;12.108;2023-05-29T06:43:29;18.40;77.20
35700;DHT22;21818;51.078;12.108;2023-05-29T06:45:54;18.40;77.00
35700;DHT22;21818;51.078;12.108;2023-05-29T06:48:20;18.40;76.90
35700;DHT22;21818;51.078;12.108;2023-05-29T06:50:47;18.50;76.80
35700;DHT22;21818;51.078;12.108;2023-05-29T06:53:13;18.50;76.60
35700;DHT22;21818;51.078;12.108;2023-05-29T06:55:39;18.50;76.60
35700;DHT22;21818;51.078;12.108;2023-05-29T06:58:06;18.50;76.40
35700;DHT22;21818;51.078;12.108;2023-05-29T07:00:31;18.60;76.30
35700;DHT22;21818;51.078;12.108;2023-05-29T07:02:57;18.60;76.20
35700;DHT22;21818;51.078;12.108;2023-05-29T07:05:23;18.60;76.00
35700;DHT22;21818;51.078;12.108;2023-05-29T07:07:48;18.60;75.90
35700;DHT22;21818;51.078;12.108;2023-05-29T07:10:14;18.70;75.90
35700;DHT22;21818;51.078;12.108;2023-05-29T07:12:39;18.70;75.80
35700;DHT22;21818;51.078;12.108;2023-05-29T07:15:05;18.70;75.70
35700;DHT22;21818;51.078;12.108;2023-05-29T07:17:31;18.70;75.60
35700;DHT22;21818;51.078;12.108;2023-05-29T07:19:57;18.70;75.60
35700;DHT22;21818;51.078;12.108;2023-05-29T07:22:22;18.80;75.50
35700;DHT22;21818;51.078;12.108;2023-05-29T07:24:48;18.80;75.40
35700;DHT22;21818;51.078;12.108;2023-05-29T07:27:13;18.80;75.30
35700;DHT22;21818;51.078;12.108;2023-05-29T07:29:39;18.80;75.20
35700;DHT22;21818;51.078;12.108;2023-05-29T07:32:05;18.80;75.10
35700;DHT22;21818;51.078;12.108;2023-05-29T07:34:30;18.90;75.10
35700;DHT22;21818;51.078;12.108;2023-05-29T07:37:00;18.90;75.00
35700;DHT22;21818;51.078;12.108;2023-05-29T07:39:26;18.90;74.90
35700;DHT22;21818;51.078;12.108;2023-05-29T07:41:52;18.90;74.80
35700;DHT22;21818;51.078;12.108;2023-05-29T07:44:17;18.90;74.70
35700;DHT22;21818;51.078;12.108;2023-05-29T07:46:43;19.00;74.70
35700;DHT22;21818;51.078;12.108;2023-05-29T07:49:09;19.00;74.60
35700;DHT22;21818;51.078;12.108;2023-05-29T07:51:34;19.00;74.60
35700;DHT22;21818;51.078;12.108;2023-05-29T07:54:01;19.00;74.50
35700;DHT22;21818;51.078;12.108;2023-05-29T07:56:26;19.00;74.40
35700;DHT22;21818;51.078;12.108;2023-05-29T07:58:52;19.00;74.30
35700;DHT22;21818;51.078;12.108;2023-05-29T08:01:20;19.10;74.30
35700;DHT22;21818;51.078;12.108;2023-05-29T08:03:46;19.00;74.20
35700;DHT22;21818;51.078;12.108;2023-05-29T08:06:12;19.10;74.20
35700;DHT22;21818;51.078;12.108;2023-05-29T08:08:38;19.10;74.10
35700;DHT22;21818;51.078;12.108;2023-05-29T08:11:04;19.10;74.10
35700;DHT22;21818;51.078;12.108;2023-05-29T08:13:30;19.10;74.00
35700;DHT22;21818;51.078;12.108;2023-05-29T08:15:56;19.10;73.90
35700;DHT22;21818;51.078;12.108;2023-05-29T08:18:25;19.10;73.90
35700;DHT22;21818;51.078;12.108;2023-05-29T08:20:51;19.20;73.90
35700;DHT22;21818;51.078;12.108;2023-05-29T08:23:16;19.20;73.80
35700;DHT22;21818;51.078;12.108;2023-05-29T08:25:42;19.20;73.80
35700;DHT22;21818;51.078;12.108;2023-05-29T08:28:07;19.20;73.70
35700;DHT22;21818;51.078;12.108;2023-05-29T08:30:33;19.20;73.60
35700;DHT22;21818;51.078;12.108;2023-05-29T08:32:59;19.20;73.50
35700;DHT22;21818;51.078;12.108;2023-05-29T08:35:24;19.20;73.50
35700;DHT22;21818;51.078;12.108;2023-05-29T08:37:50;19.30;73.50
35700;DHT22;21818;51.078;12.108;2023-05-29T08:40:15;19.30;73.40
35700;DHT22;21818;51.078;12.108;2023-05-29T08:43:12;19.30;73.30
35700;DHT22;21818;51.078;12.108;2023-05-29T08:45:40;19.30;73.20
35700;DHT22;21818;51.078;12.108;2023-05-29T08:48:09;19.30;73.10
35700;DHT22;21818;51.078;12.108;2023-05-29T08:50:37;19.40;73.10
35700;DHT22;21818;51.078;12.108;2023-05-29T08:53:07;19.40;73.10
35700;DHT22;21818;51.078;12.108;2023-05-29T08:55:33;19.40;73.00
35700;DHT22;21818;51.078;12.108;2023-05-29T08:57:59;19.40;73.00
35700;DHT22;21818;51.078;12.108;2023-05-29T09:00:25;19.40;72.90
35700;DHT22;21818;51.078;12.108;2023-05-29T09:02:54;19.40;72.90
35700;DHT22;21818;51.078;12.108;2023-05-29T09:05:21;19.40;72.80
35700;DHT22;21818;51.078;12.108;2023-05-29T09:07:47;19.40;72.80
35700;DHT22;21818;51.078;12.108;2023-05-29T09:10:15;19.40;72.80
35700;DHT22;21818;51.078;12.108;2023-05-29T09:12:41;19.40;72.70
35700;DHT22;21818;51.078;12.108;2023-05-29T09:15:27;19.50;72.70
35700;DHT22;21818;51.078;12.108;2023-05-29T09:17:54;19.50;72.60
35700;DHT22;21818;51.078;12.108;2023-05-29T09:20:21;19.50;72.70
35700;DHT22;21818;51.078;12.108;2023-05-29T09:22:57;19.50;72.60
35700;DHT22;21818;51.078;12.108;2023-05-29T09:25:25;19.50;72.60
35700;DHT22;21818;51.078;12.108;2023-05-29T09:27:56;19.50;72.60
35700;DHT22;21818;51.078;12.108;2023-05-29T09:30:40;19.50;72.60
35700;DHT22;21818;51.078;12.108;2023-05-29T09:33:10;19.50;72.90
35700;DHT22;21818;51.078;12.108;2023-05-29T09:35:47;19.60;72.80
35700;DHT22;21818;51.078;12.108;2023-05-29T09:38:14;19.60;72.80
35700;DHT22;21818;51.078;12.108;2023-05-29T09:40:41;19.60;72.90
35700;DHT22;21818;51.078;12.108;2023-05-29T09:45:43;19.60;72.90
35700;DHT22;21818;51.078;12.108;2023-05-29T09:48:17;19.60;72.90
35700;DHT22;21818;51.078;12.108;2023-05-29T09:50:43;19.60;72.90
35700;DHT22;21818;51.078;12.108;2023-05-29T09:53:25;19.60;72.90
35700;DHT22;21818;51.078;12.108;2023-05-29T09:55:53;19.60;72.90
35700;DHT22;21818;51.078;12.108;2023-05-29T09:58:20;19.60;72.90
35700;DHT22;21818;51.078;12.108;2023-05-29T10:00:47;19.60;72.90
35700;DHT22;21818;51.078;12.108;2023-05-29T10:03:14;19.60;72.90
35700;DHT22;21818;51.078;12.108;2023-05-29T10:05:45;19.70;72.90
35700;DHT22;21818;51.078;12.108;2023-05-29T10:08:13;19.70;72.90
35700;DHT22;21818;51.078;12.108;2023-05-29T10:10:48;19.70;72.80
35700;DHT22;21818;51.078;12.108;2023-05-29T10:13:15;19.70;72.80
35700;DHT22;21818;51.078;12.108;2023-05-29T10:15:44;19.70;72.70
35700;DHT22;21818;51.078;12.108;2023-05-29T10:18:22;19.70;72.70
35700;DHT22;21818;51.078;12.108;2023-05-29T10:20:53;19.70;72.70
35700;DHT22;21818;51.078;12.108;2023-05-29T10:23:22;19.70;72.60
35700;DHT22;21818;51.078;12.108;2023-05-29T10:26:12;19.70;72.50
35700;DHT22;21818;51.078;12.108;2023-05-29T10:28:46;19.80;72.50
35700;DHT22;21818;51.078;12.108;2023-05-29T10:31:22;19.70;72.40
35700;DHT22;21818;51.078;12.108;2023-05-29T10:33:56;19.80;72.40
35700;DHT22;21818;51.078;12.108;2023-05-29T10:36:32;19.80;72.30
35700;DHT22;21818;51.078;12.108;2023-05-29T10:39:00;19.80;72.30
35700;DHT22;21818;51.078;12.108;2023-05-29T10:43:56;19.80;72.20
35700;DHT22;21818;51.078;12.108;2023-05-29T10:49:21;19.90;72.10
35700;DHT22;21818;51.078;12.108;2023-05-29T10:51:47;19.90;72.10
35700;DHT22;21818;51.078;12.108;2023-05-29T10:54:14;19.90;72.10
35700;DHT22;21818;51.078;12.108;2023-05-29T10:56:40;19.90;72.00
35700;DHT22;21818;51.078;12.108;2023-05-29T10:59:08;19.90;72.00
35700;DHT22;21818;51.078;12.108;2023-05-29T11:01:33;19.90;71.90
35700;DHT22;21818;51.078;12.108;2023-05-29T11:06:43;19.90;71.80
35700;DHT22;21818;51.078;12.108;2023-05-29T11:12:23;20.00;71.80
35700;DHT22;21818;51.078;12.108;2023-05-29T11:15:06;20.00;71.70
35700;DHT22;21818;51.078;12.108;2023-05-29T11:20:05;20.00;71.60
35700;DHT22;21818;51.078;12.108;2023-05-29T11:23:20;20.00;71.50
35700;DHT22;21818;51.078;12.108;2023-05-29T11:25:40;20.00;71.50
35700;DHT22;21818;51.078;12.108;2023-05-29T11:28:07;20.00;71.40
35700;DHT22;21818;51.078;12.108;2023-05-29T11:30:45;20.00;71.40
35700;DHT22;21818;51.078;12.108;2023-05-29T11:33:25;20.00;71.30
35700;DHT22;21818;51.078;12.108;2023-05-29T11:35:57;20.00;71.30
35700;DHT22;21818;51.078;12.108;2023-05-29T11:38:24;20.10;71.30
35700;DHT22;21818;51.078;12.108;2023-05-29T11:40:50;20.10;71.30
35700;DHT22;21818;51.078;12.108;2023-05-29T11:43:16;20.10;71.30
35700;DHT22;21818;51.078;12.108;2023-05-29T11:45:41;20.10;71.20
35700;DHT22;21818;51.078;12.108;2023-05-29T11:48:07;20.10;71.10
35700;DHT22;21818;51.078;12.108;2023-05-29T11:50:33;20.10;71.10
35700;DHT22;21818;51.078;12.108;2023-05-29T11:53:02;20.20;71.10
35700;DHT22;21818;51.078;12.108;2023-05-29T11:55:27;20.20;71.10
35700;DHT22;21818;51.078;12.108;2023-05-29T11:58:00;20.20;71.00
35700;DHT22;21818;51.078;12.108;2023-05-29T12:00:34;20.20;71.00
35700;DHT22;21818;51.078;12.108;2023-05-29T12:03:01;20.20;71.00
35700;DHT22;21818;51.078;12.108;2023-05-29T12:05:31;20.20;70.90
35700;DHT22;21818;51.078;12.108;2023-05-29T12:07:57;20.20;70.90
35700;DHT22;21818;51.078;12.108;2023-05-29T12:10:23;20.20;70.80
35700;DHT22;21818;51.078;12.108;2023-05-29T12:12:59;20.20;70.80
35700;DHT22;21818;51.078;12.108;2023-05-29T12:15:26;20.30;70.80
35700;DHT22;21818;51.078;12.108;2023-05-29T12:17:53;20.30;70.80
35700;DHT22;21818;51.078;12.108;2023-05-29T12:20:19;20.30;70.70
35700;DHT22;21818;51.078;12.108;2023-05-29T12:22:46;20.30;70.70
35700;DHT22;21818;51.078;12.108;2023-05-29T12:25:14;20.30;70.70
35700;DHT22;21818;51.078;12.108;2023-05-29T12:27:42;20.30;70.60
35700;DHT22;21818;51.078;12.108;2023-05-29T12:30:09;20.30;70.50
35700;DHT22;21818;51.078;12.108;2023-05-29T12:32:39;20.30;70.50
35700;DHT22;21818;51.078;12.108;2023-05-29T12:40:19;20.30;70.40
35700;DHT22;21818;51.078;12.108;2023-05-29T12:42:46;20.40;70.40
35700;DHT22;21818;51.078;12.108;2023-05-29T12:45:12;20.40;70.40
35700;DHT22;21818;51.078;12.108;2023-05-29T12:47:43;20.40;70.30
35700;DHT22;21818;51.078;12.108;2023-05-29T12:50:26;20.40;70.20
35700;DHT22;21818;51.078;12.108;2023-05-29T12:53:05;20.40;70.20
35700;DHT22;21818;51.078;12.108;2023-05-29T12:55:39;20.50;70.20
35700;DHT22;21818;51.078;12.108;2023-05-29T12:58:15;20.50;70.10
35700;DHT22;21818;51.078;12.108;2023-05-29T13:00:42;20.50;70.10
35700;DHT22;21818;51.078;12.108;2023-05-29T13:03:08;20.50;70.00
35700;DHT22;21818;51.078;12.108;2023-05-29T13:05:34;20.50;70.00
35700;DHT22;21818;51.078;12.108;2023-05-29T13:08:00;20.50;69.90
35700;DHT22;21818;51.078;12.108;2023-05-29T13:10:27;20.50;69.90
35700;DHT22;21818;51.078;12.108;2023-05-29T13:12:54;20.50;69.80
35700;DHT22;21818;51.078;12.108;2023-05-29T13:15:21;20.60;69.90
35700;DHT22;21818;51.078;12.108;2023-05-29T13:17:48;20.60;69.80
35700;DHT22;21818;51.078;12.108;2023-05-29T13:20:14;20.60;69.80
35700;DHT22;21818;51.078;12.108;2023-05-29T13:22:41;20.60;69.70
35700;DHT22;21818;51.078;12.108;2023-05-29T13:25:08;20.60;69.70
35700;DHT22;21818;51.078;12.108;2023-05-29T13:27:38;20.60;69.70
35700;DHT22;21818;51.078;12.108;2023-05-29T13:30:05;20.70;69.70
35700;DHT22;21818;51.078;12.108;2023-05-29T13:32:31;20.70;69.60
35700;DHT22;21818;51.078;12.108;2023-05-29T13:34:57;20.70;70.10
35700;DHT22;21818;51.078;12.108;2023-05-29T13:37:22;20.70;69.50
35700;DHT22;21818;51.078;12.108;2023-05-29T13:39:48;20.70;69.50
35700;DHT22;21818;51.078;12.108;2023-05-29T13:42:14;20.70;69.40
35700;DHT22;21818;51.078;12.108;2023-05-29T13:44:40;20.80;69.40
35700;DHT22;21818;51.078;12.108;2023-05-29T13:47:06;20.80;69.40
35700;DHT22;21818;51.078;12.108;2023-05-29T13:49:34;20.80;69.30
35700;DHT22;21818;51.078;12.108;2023-05-29T13:52:00;20.80;69.30
35700;DHT22;21818;51.078;12.108;2023-05-29T13:54:25;20.80;69.20
35700;DHT22;21818;51.078;12.108;2023-05-29T13:56:53;20.80;69.10
35700;DHT22;21818;51.078;12.108;2023-05-29T13:59:18;20.80;69.10
35700;DHT22;21818;51.078;12.108;2023-05-29T14:01:44;20.90;69.10
35700;DHT22;21818;51.078;12.108;2023-05-29T14:04:09;20.90;69.10
35700;DHT22;21818;51.078;12.108;2023-05-29T14:06:35;20.90;69.00
35700;DHT22;21818;51.078;12.108;2023-05-29T14:09:02;20.90;69.00
35700;DHT22;21818;51.078;12.108;2023-05-29T14:11:28;20.90;69.00
35700;DHT22;21818;51.078;12.108;2023-05-29T14:13:53;21.00;68.90
35700;DHT22;21818;51.078;12.108;2023-05-29T14:16:19;21.00;68.90
35700;DHT22;21818;51.078;12.108;2023-05-29T14:18:44;21.00;68.80
35700;DHT22;21818;51.078;12.108;2023-05-29T14:21:11;21.00;68.70
35700;DHT22;21818;51.078;12.108;2023-05-29T14:23:37;21.00;68.80
35700;DHT22;21818;51.078;12.108;2023-05-29T14:26:03;21.10;68.80
35700;DHT22;21818;51.078;12.108;2023-05-29T14:28:29;21.10;68.80
35700;DHT22;21818;51.078;12.108;2023-05-29T14:30:55;21.10;68.70
35700;DHT22;21818;51.078;12.108;2023-05-29T14:33:20;21.10;68.70
35700;DHT22;21818;51.078;12.108;2023-05-29T14:35:46;21.10;68.60
35700;DHT22;21818;51.078;12.108;2023-05-29T14:38:11;21.20;68.60
35700;DHT22;21818;51.078;12.108;2023-05-29T14:40:37;21.10;68.60
35700;DHT22;21818;51.078;12.108;2023-05-29T14:43:03;21.20;68.50
35700;DHT22;21818;51.078;12.108;2023-05-29T14:45:28;21.20;68.50
35700;DHT22;21818;51.078;12.108;2023-05-29T14:47:54;21.20;68.50
35700;DHT22;21818;51.078;12.108;2023-05-29T14:50:19;21.20;68.50
35700;DHT22;21818;51.078;12.108;2023-05-29T14:52:45;21.20;68.40
35700;DHT22;21818;51.078;12.108;2023-05-29T14:55:13;21.20;68.40
35700;DHT22;21818;51.078;12.108;2023-05-29T14:57:40;21.30;68.40
35700;DHT22;21818;51.078;12.108;2023-05-29T15:00:06;21.30;68.40
35700;DHT22;21818;51.078;12.108;2023-05-29T15:02:32;21.30;68.40
35700;DHT22;21818;51.078;12.108;2023-05-29T15:04:58;21.30;68.30
35700;DHT22;21818;51.078;12.108;2023-05-29T15:07:24;21.30;68.20
35700;DHT22;21818;51.078;12.108;2023-05-29T15:09:49;21.30;68.20
35700;DHT22;21818;51.078;12.108;2023-05-29T15:12:15;21.30;68.20
35700;DHT22;21818;51.078;12.108;2023-05-29T15:14:40;21.30;68.10
35700;DHT22;21818;51.078;12.108;2023-05-29T15:17:06;21.30;68.10
35700;DHT22;21818;51.078;12.108;2023-05-29T15:19:32;21.30;68.10
35700;DHT22;21818;51.078;12.108;2023-05-29T15:21:58;21.40;68.10
35700;DHT22;21818;51.078;12.108;2023-05-29T15:24:23;21.40;68.00
35700;DHT22;21818;51.078;12.108;2023-05-29T15:26:49;21.40;68.00
35700;DHT22;21818;51.078;12.108;2023-05-29T15:29:15;21.40;68.00
35700;DHT22;21818;51.078;12.108;2023-05-29T15:31:41;21.40;67.90
35700;DHT22;21818;51.078;12.108;2023-05-29T15:34:06;21.40;67.90
35700;DHT22;21818;51.078;12.108;2023-05-29T15:36:32;21.40;67.90
35700;DHT22;21818;51.078;12.108;2023-05-29T15:38:58;21.50;67.80
35700;DHT22;21818;51.078;12.108;2023-05-29T15:41:23;21.50;67.80
35700;DHT22;21818;51.078;12.108;2023-05-29T15:43:54;21.50;67.80
35700;DHT22;21818;51.078;12.108;2023-05-29T15:46:20;21.50;67.80
35700;DHT22;21818;51.078;12.108;2023-05-29T15:48:46;21.50;67.70